SWA1184 KLAX-KOAK
Flight info
| Callsign | SWA1184 |
|---|---|
| Flight time | 0h 58m |
| Altitude | 36000 |
| Route | LADYJ4 COREZ DCT RGOOD EMZOH4 |
| Aircraft | B738/M-SADE2E3GIJ4RWZ/LB1D1 |
Departure
| Time | 2026-04-22 10:47 |
|---|---|
| Airport | Los Angeles International Airport (KLAX) |
Arrival
| Time | 2026-04-22 11:46 |
|---|---|
| Airport | San Francisco Bay Oakland International Airport (KOAK) |
| Time | Latitude | Longitude | Altitude | Speed | Heading |
|---|---|---|---|---|---|
| 2026-04-22 10:31 | 33.94626 | -118.40006 | 92 ft | 0 kts | 168° |
| 2026-04-22 10:39 | 33.94633 | -118.40008 | 93 ft | 4 kts | 171° |
| 2026-04-22 10:39 | 33.94660 | -118.40010 | 92 ft | 4 kts | 181° |
| 2026-04-22 10:40 | 33.94681 | -118.40010 | 91 ft | 3 kts | 179° |
| 2026-04-22 10:40 | 33.94708 | -118.40010 | 92 ft | 4 kts | 181° |
| 2026-04-22 10:40 | 33.94735 | -118.40008 | 92 ft | 4 kts | 189° |
| 2026-04-22 10:40 | 33.94741 | -118.40009 | 91 ft | 4 kts | 206° |
| 2026-04-22 10:41 | 33.94732 | -118.40025 | 90 ft | 4 kts | 274° |
| 2026-04-22 10:41 | 33.94746 | -118.40022 | 92 ft | 4 kts | 4° |
| 2026-04-22 10:41 | 33.94766 | -118.40009 | 92 ft | 4 kts | 24° |
| 2026-04-22 10:41 | 33.94779 | -118.40007 | 92 ft | 0 kts | 7° |
| 2026-04-22 10:43 | 33.94784 | -118.40006 | 92 ft | 3 kts | 6° |
| 2026-04-22 10:44 | 33.94820 | -118.40012 | 93 ft | 8 kts | 346° |
| 2026-04-22 10:44 | 33.94866 | -118.40065 | 92 ft | 11 kts | 315° |
| 2026-04-22 10:44 | 33.94923 | -118.40046 | 92 ft | 12 kts | 84° |
| 2026-04-22 10:44 | 33.94940 | -118.39943 | 92 ft | 13 kts | 56° |
| 2026-04-22 10:45 | 33.95021 | -118.39920 | 94 ft | 13 kts | 338° |
| 2026-04-22 10:45 | 33.95038 | -118.39989 | 95 ft | 5 kts | 263° |
| 2026-04-22 10:46 | 33.95037 | -118.39999 | 94 ft | 5 kts | 263° |
| 2026-04-22 10:46 | 33.95034 | -118.40025 | 93 ft | 6 kts | 263° |
| 2026-04-22 10:46 | 33.95013 | -118.40234 | 98 ft | 60 kts | 263° |
| 2026-04-22 10:46 | 33.94924 | -118.41073 | 98 ft | 138 kts | 263° |
| 2026-04-22 10:47 | 33.94786 | -118.42335 | 687 ft | 151 kts | 265° |
| 2026-04-22 10:47 | 33.94652 | -118.43541 | 1768 ft | 145 kts | 264° |
| 2026-04-22 10:47 | 33.94531 | -118.44807 | 2336 ft | 164 kts | 265° |
| 2026-04-22 10:47 | 33.94426 | -118.45948 | 2548 ft | 188 kts | 265° |
| 2026-04-22 10:48 | 33.94350 | -118.46808 | 2686 ft | 201 kts | 266° |
| 2026-04-22 10:48 | 33.94279 | -118.48609 | 2951 ft | 222 kts | 269° |
| 2026-04-22 10:48 | 33.94230 | -118.50527 | 3264 ft | 243 kts | 269° |
| 2026-04-22 10:48 | 33.94120 | -118.52586 | 3990 ft | 250 kts | 265° |
| 2026-04-22 10:49 | 33.93948 | -118.54685 | 4795 ft | 253 kts | 264° |
| 2026-04-22 10:49 | 33.93773 | -118.56802 | 5650 ft | 254 kts | 265° |
| 2026-04-22 10:49 | 33.93601 | -118.58922 | 6544 ft | 254 kts | 265° |
| 2026-04-22 10:49 | 33.93479 | -118.61046 | 7374 ft | 256 kts | 273° |
| 2026-04-22 10:50 | 33.93997 | -118.63078 | 7827 ft | 259 kts | 300° |
| 2026-04-22 10:50 | 33.95194 | -118.64723 | 7964 ft | 265 kts | 319° |
| 2026-04-22 10:50 | 33.96753 | -118.65934 | 8001 ft | 269 kts | 324° |
| 2026-04-22 10:50 | 33.98358 | -118.67090 | 7991 ft | 269 kts | 329° |
| 2026-04-22 10:51 | 34.00171 | -118.67676 | 8006 ft | 275 kts | 351° |
| 2026-04-22 10:51 | 34.02097 | -118.67650 | 7998 ft | 278 kts | 358° |
| 2026-04-22 10:51 | 34.04028 | -118.67494 | 7995 ft | 278 kts | 359° |
| 2026-04-22 10:51 | 34.05958 | -118.67341 | 7992 ft | 278 kts | 359° |
| 2026-04-22 10:52 | 34.07862 | -118.67199 | 8004 ft | 280 kts | 0° |
| 2026-04-22 10:52 | 34.09845 | -118.66818 | 8301 ft | 289 kts | 7° |
| 2026-04-22 10:52 | 34.11796 | -118.66322 | 9166 ft | 291 kts | 6° |
| 2026-04-22 10:52 | 34.13808 | -118.65810 | 9930 ft | 300 kts | 6° |
| 2026-04-22 10:53 | 34.15889 | -118.65289 | 10434 ft | 317 kts | 6° |
| 2026-04-22 10:53 | 34.18143 | -118.64746 | 10635 ft | 343 kts | 6° |
| 2026-04-22 10:53 | 34.20564 | -118.64171 | 10891 ft | 364 kts | 6° |
| 2026-04-22 10:53 | 34.23075 | -118.63575 | 11518 ft | 371 kts | 5° |
| 2026-04-22 10:54 | 34.25630 | -118.63395 | 12245 ft | 364 kts | 345° |
| 2026-04-22 10:54 | 34.28086 | -118.63995 | 13079 ft | 361 kts | 341° |
| 2026-04-22 10:54 | 34.30570 | -118.64622 | 13805 ft | 369 kts | 341° |
| 2026-04-22 10:54 | 34.33108 | -118.65233 | 14503 ft | 373 kts | 342° |
| 2026-04-22 10:55 | 34.35674 | -118.65827 | 15210 ft | 378 kts | 342° |
| 2026-04-22 10:55 | 34.38267 | -118.66409 | 15965 ft | 379 kts | 342° |
| 2026-04-22 10:55 | 34.40854 | -118.66990 | 16797 ft | 381 kts | 341° |
| 2026-04-22 10:55 | 34.43406 | -118.67833 | 17401 ft | 375 kts | 327° |
| 2026-04-22 10:56 | 34.45644 | -118.69407 | 18124 ft | 373 kts | 321° |
| 2026-04-22 10:56 | 34.47870 | -118.71050 | 18782 ft | 377 kts | 321° |
| 2026-04-22 10:56 | 34.50138 | -118.72685 | 19457 ft | 380 kts | 322° |
| 2026-04-22 10:56 | 34.52426 | -118.74306 | 20145 ft | 382 kts | 322° |
| 2026-04-22 10:57 | 34.53822 | -118.75289 | 20550 ft | 382 kts | 322° |
| 2026-04-22 10:57 | 34.55219 | -118.76277 | 20966 ft | 384 kts | 321° |
| 2026-04-22 10:57 | 34.57532 | -118.77918 | 21623 ft | 386 kts | 321° |
| 2026-04-22 10:57 | 34.59846 | -118.79560 | 22254 ft | 386 kts | 321° |
| 2026-04-22 10:58 | 34.62182 | -118.81208 | 22767 ft | 391 kts | 321° |
| 2026-04-22 10:58 | 34.64536 | -118.82874 | 23388 ft | 393 kts | 321° |
| 2026-04-22 10:58 | 34.66903 | -118.84559 | 23909 ft | 395 kts | 321° |
| 2026-04-22 10:58 | 34.69278 | -118.86248 | 24340 ft | 397 kts | 321° |
| 2026-04-22 10:59 | 34.71667 | -118.87951 | 24787 ft | 398 kts | 321° |
| 2026-04-22 10:59 | 34.74061 | -118.89646 | 25318 ft | 399 kts | 321° |
| 2026-04-22 10:59 | 34.76464 | -118.91346 | 25772 ft | 401 kts | 321° |
| 2026-04-22 10:59 | 34.78879 | -118.93061 | 26204 ft | 403 kts | 321° |
| 2026-04-22 11:00 | 34.81302 | -118.94788 | 26644 ft | 405 kts | 321° |
| 2026-04-22 11:00 | 34.83743 | -118.96533 | 27086 ft | 407 kts | 321° |
| 2026-04-22 11:00 | 34.86185 | -118.98280 | 27556 ft | 406 kts | 321° |
| 2026-04-22 11:00 | 34.88624 | -119.00021 | 28043 ft | 407 kts | 321° |
| 2026-04-22 11:01 | 34.91078 | -119.01779 | 28426 ft | 411 kts | 321° |
| 2026-04-22 11:01 | 34.93546 | -119.03549 | 28806 ft | 413 kts | 321° |
| 2026-04-22 11:01 | 34.96033 | -119.05329 | 29194 ft | 415 kts | 321° |
| 2026-04-22 11:01 | 34.98525 | -119.07111 | 29728 ft | 414 kts | 321° |
| 2026-04-22 11:02 | 35.01000 | -119.08880 | 30358 ft | 410 kts | 321° |
| 2026-04-22 11:02 | 35.03451 | -119.10632 | 30913 ft | 406 kts | 320° |
| 2026-04-22 11:02 | 35.05881 | -119.12373 | 31373 ft | 405 kts | 320° |
| 2026-04-22 11:02 | 35.08307 | -119.14115 | 31785 ft | 404 kts | 320° |
| 2026-04-22 11:03 | 35.10729 | -119.15858 | 32204 ft | 403 kts | 320° |
| 2026-04-22 11:03 | 35.13140 | -119.17592 | 32659 ft | 402 kts | 319° |
| 2026-04-22 11:03 | 35.15541 | -119.19319 | 33186 ft | 399 kts | 319° |
| 2026-04-22 11:03 | 35.17919 | -119.21029 | 33763 ft | 395 kts | 319° |
| 2026-04-22 11:04 | 35.20247 | -119.22704 | 34223 ft | 392 kts | 318° |
| 2026-04-22 11:04 | 35.22598 | -119.24401 | 34502 ft | 393 kts | 318° |
| 2026-04-22 11:04 | 35.24960 | -119.26109 | 34789 ft | 394 kts | 318° |
| 2026-04-22 11:04 | 35.27315 | -119.27811 | 35141 ft | 393 kts | 318° |
| 2026-04-22 11:05 | 35.29668 | -119.29511 | 35472 ft | 393 kts | 318° |
| 2026-04-22 11:05 | 35.32021 | -119.31213 | 35738 ft | 393 kts | 318° |
| 2026-04-22 11:05 | 35.34377 | -119.32918 | 36082 ft | 393 kts | 318° |
| 2026-04-22 11:06 | 35.39127 | -119.36364 | 36188 ft | 399 kts | 318° |
| 2026-04-22 11:06 | 35.43887 | -119.39809 | 36183 ft | 393 kts | 318° |
| 2026-04-22 11:07 | 35.48569 | -119.43206 | 36194 ft | 390 kts | 317° |
| 2026-04-22 11:07 | 35.53245 | -119.46611 | 36262 ft | 391 kts | 317° |
| 2026-04-22 11:08 | 35.57762 | -119.50263 | 36203 ft | 382 kts | 310° |
| 2026-04-22 11:08 | 35.61809 | -119.54466 | 36173 ft | 380 kts | 309° |
| 2026-04-22 11:09 | 35.65832 | -119.58695 | 36182 ft | 381 kts | 309° |
| 2026-04-22 11:09 | 35.69862 | -119.62862 | 36195 ft | 381 kts | 310° |
| 2026-04-22 11:10 | 35.73940 | -119.67051 | 36200 ft | 382 kts | 310° |
| 2026-04-22 11:10 | 35.78025 | -119.71244 | 36195 ft | 382 kts | 310° |
| 2026-04-22 11:11 | 35.82110 | -119.75441 | 36196 ft | 382 kts | 310° |
| 2026-04-22 11:11 | 35.86191 | -119.79642 | 36192 ft | 382 kts | 310° |
| 2026-04-22 11:12 | 35.90273 | -119.83850 | 36189 ft | 383 kts | 310° |
| 2026-04-22 11:12 | 35.94183 | -119.88228 | 36196 ft | 378 kts | 306° |
| 2026-04-22 11:13 | 35.97947 | -119.92747 | 36195 ft | 377 kts | 306° |
| 2026-04-22 11:13 | 36.01711 | -119.97264 | 36203 ft | 377 kts | 306° |
| 2026-04-22 11:14 | 36.05492 | -120.01773 | 36212 ft | 378 kts | 307° |
| 2026-04-22 11:14 | 36.09259 | -120.06255 | 36213 ft | 379 kts | 307° |
| 2026-04-22 11:15 | 36.13054 | -120.10772 | 36207 ft | 379 kts | 307° |
| 2026-04-22 11:15 | 36.16848 | -120.15293 | 36202 ft | 378 kts | 306° |
| 2026-04-22 11:16 | 36.20636 | -120.19814 | 36248 ft | 378 kts | 307° |
| 2026-04-22 11:16 | 36.24428 | -120.24347 | 36215 ft | 379 kts | 307° |
| 2026-04-22 11:17 | 36.28225 | -120.28893 | 36212 ft | 379 kts | 306° |
| 2026-04-22 11:17 | 36.32022 | -120.33443 | 36212 ft | 380 kts | 306° |
| 2026-04-22 11:18 | 36.35817 | -120.37999 | 36212 ft | 380 kts | 306° |
| 2026-04-22 11:18 | 36.39616 | -120.42565 | 36222 ft | 377 kts | 306° |
| 2026-04-22 11:18 | 36.41464 | -120.44784 | 36200 ft | 361 kts | 306° |
| 2026-04-22 11:19 | 36.43236 | -120.46902 | 36189 ft | 346 kts | 306° |
| 2026-04-22 11:19 | 36.44933 | -120.48931 | 36157 ft | 334 kts | 305° |
| 2026-04-22 11:19 | 36.46610 | -120.50966 | 35321 ft | 341 kts | 305° |
| 2026-04-22 11:19 | 36.48332 | -120.53071 | 34393 ft | 353 kts | 306° |
| 2026-04-22 11:20 | 36.50099 | -120.55231 | 33369 ft | 360 kts | 306° |
| 2026-04-22 11:20 | 36.51921 | -120.57431 | 32346 ft | 369 kts | 307° |
| 2026-04-22 11:20 | 36.53771 | -120.59647 | 31658 ft | 369 kts | 307° |
| 2026-04-22 11:20 | 36.55672 | -120.61807 | 30874 ft | 373 kts | 308° |
| 2026-04-22 11:21 | 36.57580 | -120.63907 | 30329 ft | 369 kts | 309° |
| 2026-04-22 11:21 | 36.59495 | -120.65999 | 29776 ft | 364 kts | 309° |
| 2026-04-22 11:21 | 36.61390 | -120.68068 | 29251 ft | 359 kts | 309° |
| 2026-04-22 11:21 | 36.63249 | -120.70107 | 28753 ft | 353 kts | 309° |
| 2026-04-22 11:22 | 36.65074 | -120.72118 | 28255 ft | 348 kts | 308° |
| 2026-04-22 11:22 | 36.66870 | -120.74104 | 27805 ft | 342 kts | 308° |
| 2026-04-22 11:22 | 36.68639 | -120.76071 | 27314 ft | 339 kts | 308° |
| 2026-04-22 11:22 | 36.70375 | -120.78032 | 26812 ft | 334 kts | 308° |
| 2026-04-22 11:23 | 36.72084 | -120.79954 | 26406 ft | 330 kts | 309° |
| 2026-04-22 11:23 | 36.73795 | -120.81838 | 25950 ft | 327 kts | 309° |
| 2026-04-22 11:23 | 36.75492 | -120.83711 | 25486 ft | 325 kts | 309° |
| 2026-04-22 11:23 | 36.77174 | -120.85577 | 25036 ft | 323 kts | 308° |
| 2026-04-22 11:24 | 36.78851 | -120.87441 | 24461 ft | 324 kts | 309° |
| 2026-04-22 11:24 | 36.80535 | -120.89306 | 23989 ft | 323 kts | 309° |
| 2026-04-22 11:24 | 36.82212 | -120.91161 | 23510 ft | 321 kts | 309° |
| 2026-04-22 11:24 | 36.83876 | -120.93003 | 23054 ft | 318 kts | 309° |
| 2026-04-22 11:25 | 36.85522 | -120.94824 | 22596 ft | 315 kts | 309° |
| 2026-04-22 11:25 | 36.87150 | -120.96629 | 22171 ft | 311 kts | 309° |
| 2026-04-22 11:25 | 36.88758 | -120.98414 | 21751 ft | 307 kts | 309° |
| 2026-04-22 11:25 | 36.90347 | -121.00180 | 21331 ft | 304 kts | 310° |
| 2026-04-22 11:26 | 36.91922 | -121.01931 | 20915 ft | 302 kts | 310° |
| 2026-04-22 11:26 | 36.93478 | -121.03628 | 20530 ft | 300 kts | 311° |
| 2026-04-22 11:26 | 36.95042 | -121.05351 | 20117 ft | 300 kts | 310° |
| 2026-04-22 11:26 | 36.96594 | -121.07099 | 19687 ft | 301 kts | 310° |
| 2026-04-22 11:27 | 36.98181 | -121.08890 | 19292 ft | 307 kts | 310° |
| 2026-04-22 11:27 | 36.99763 | -121.10670 | 18916 ft | 311 kts | 310° |
| 2026-04-22 11:27 | 37.01372 | -121.12472 | 18465 ft | 310 kts | 310° |
| 2026-04-22 11:27 | 37.02971 | -121.14262 | 17969 ft | 306 kts | 311° |
| 2026-04-22 11:28 | 37.04555 | -121.16024 | 17525 ft | 302 kts | 311° |
| 2026-04-22 11:28 | 37.06133 | -121.17744 | 17093 ft | 300 kts | 311° |
| 2026-04-22 11:28 | 37.07670 | -121.19482 | 16707 ft | 296 kts | 311° |
| 2026-04-22 11:28 | 37.09196 | -121.21208 | 16258 ft | 296 kts | 311° |
| 2026-04-22 11:29 | 37.10723 | -121.22924 | 15832 ft | 294 kts | 312° |
| 2026-04-22 11:29 | 37.12241 | -121.24628 | 15424 ft | 293 kts | 312° |
| 2026-04-22 11:29 | 37.13752 | -121.26333 | 15042 ft | 291 kts | 312° |
| 2026-04-22 11:29 | 37.14762 | -121.27495 | 14791 ft | 292 kts | 312° |
| 2026-04-22 11:30 | 37.16268 | -121.29249 | 14451 ft | 301 kts | 312° |
| 2026-04-22 11:30 | 37.17819 | -121.31069 | 14084 ft | 308 kts | 313° |
| 2026-04-22 11:30 | 37.19404 | -121.32914 | 13654 ft | 313 kts | 313° |
| 2026-04-22 11:30 | 37.21009 | -121.34768 | 13223 ft | 314 kts | 313° |
| 2026-04-22 11:31 | 37.22608 | -121.36631 | 12828 ft | 314 kts | 313° |
| 2026-04-22 11:31 | 37.24197 | -121.38481 | 12584 ft | 307 kts | 313° |
| 2026-04-22 11:31 | 37.25732 | -121.40265 | 12517 ft | 295 kts | 314° |
| 2026-04-22 11:31 | 37.27182 | -121.41961 | 12418 ft | 283 kts | 313° |
| 2026-04-22 11:32 | 37.28600 | -121.43605 | 12355 ft | 272 kts | 313° |
| 2026-04-22 11:32 | 37.29965 | -121.45194 | 12211 ft | 264 kts | 313° |
| 2026-04-22 11:32 | 37.31305 | -121.46763 | 11898 ft | 264 kts | 313° |
| 2026-04-22 11:32 | 37.32664 | -121.48354 | 11457 ft | 268 kts | 313° |
| 2026-04-22 11:33 | 37.34029 | -121.49950 | 11170 ft | 267 kts | 313° |
| 2026-04-22 11:33 | 37.35383 | -121.51534 | 10888 ft | 266 kts | 314° |
| 2026-04-22 11:33 | 37.36733 | -121.53112 | 10656 ft | 263 kts | 314° |
| 2026-04-22 11:33 | 37.38061 | -121.54660 | 10385 ft | 260 kts | 314° |
| 2026-04-22 11:34 | 37.39405 | -121.56198 | 10039 ft | 262 kts | 315° |
| 2026-04-22 11:34 | 37.40759 | -121.57740 | 9719 ft | 262 kts | 315° |
| 2026-04-22 11:34 | 37.42105 | -121.59274 | 9437 ft | 260 kts | 315° |
| 2026-04-22 11:34 | 37.43443 | -121.60800 | 9158 ft | 259 kts | 314° |
| 2026-04-22 11:35 | 37.44692 | -121.62408 | 8850 ft | 256 kts | 306° |
| 2026-04-22 11:35 | 37.45721 | -121.64228 | 8472 ft | 255 kts | 301° |
| 2026-04-22 11:35 | 37.46718 | -121.66070 | 8208 ft | 255 kts | 302° |
| 2026-04-22 11:35 | 37.47727 | -121.67895 | 7922 ft | 254 kts | 302° |
| 2026-04-22 11:36 | 37.48740 | -121.69713 | 7639 ft | 253 kts | 302° |
| 2026-04-22 11:36 | 37.49759 | -121.71515 | 7376 ft | 252 kts | 302° |
| 2026-04-22 11:36 | 37.50777 | -121.73309 | 7114 ft | 251 kts | 303° |
| 2026-04-22 11:36 | 37.51795 | -121.75093 | 6853 ft | 251 kts | 303° |
| 2026-04-22 11:37 | 37.52798 | -121.76882 | 6587 ft | 249 kts | 298° |
| 2026-04-22 11:37 | 37.53344 | -121.78914 | 6246 ft | 245 kts | 276° |
| 2026-04-22 11:37 | 37.53573 | -121.81031 | 6025 ft | 243 kts | 276° |
| 2026-04-22 11:37 | 37.53816 | -121.83106 | 5759 ft | 242 kts | 276° |
| 2026-04-22 11:38 | 37.54062 | -121.85206 | 5475 ft | 242 kts | 276° |
| 2026-04-22 11:38 | 37.54307 | -121.87300 | 5191 ft | 241 kts | 276° |
| 2026-04-22 11:38 | 37.54794 | -121.91469 | 4650 ft | 239 kts | 276° |
| 2026-04-22 11:39 | 37.55031 | -121.93498 | 4589 ft | 230 kts | 276° |
| 2026-04-22 11:39 | 37.55259 | -121.95456 | 4511 ft | 221 kts | 275° |
| 2026-04-22 11:39 | 37.55478 | -121.97333 | 4434 ft | 212 kts | 275° |
| 2026-04-22 11:39 | 37.55696 | -121.99121 | 4363 ft | 200 kts | 279° |
| 2026-04-22 11:40 | 37.56342 | -122.00614 | 4254 ft | 197 kts | 310° |
| 2026-04-22 11:40 | 37.57280 | -122.01884 | 4011 ft | 198 kts | 304° |
| 2026-04-22 11:40 | 37.58122 | -122.03223 | 3752 ft | 192 kts | 304° |
| 2026-04-22 11:40 | 37.58952 | -122.04512 | 3492 ft | 187 kts | 305° |
| 2026-04-22 11:41 | 37.59757 | -122.05738 | 3229 ft | 176 kts | 305° |
| 2026-04-22 11:41 | 37.60517 | -122.06888 | 2999 ft | 165 kts | 305° |
| 2026-04-22 11:41 | 37.61224 | -122.07949 | 2799 ft | 152 kts | 303° |
| 2026-04-22 11:41 | 37.61876 | -122.08936 | 2599 ft | 143 kts | 303° |
| 2026-04-22 11:42 | 37.62503 | -122.09888 | 2400 ft | 143 kts | 304° |
| 2026-04-22 11:42 | 37.63141 | -122.10854 | 2214 ft | 144 kts | 304° |
| 2026-04-22 11:42 | 37.63784 | -122.11825 | 2017 ft | 144 kts | 304° |
| 2026-04-22 11:42 | 37.64427 | -122.12796 | 1805 ft | 144 kts | 306° |
| 2026-04-22 11:43 | 37.65068 | -122.13763 | 1616 ft | 144 kts | 305° |
| 2026-04-22 11:43 | 37.65712 | -122.14741 | 1398 ft | 145 kts | 305° |
| 2026-04-22 11:43 | 37.66346 | -122.15723 | 1185 ft | 145 kts | 306° |
| 2026-04-22 11:43 | 37.66993 | -122.16704 | 966 ft | 146 kts | 307° |
| 2026-04-22 11:44 | 37.67633 | -122.17692 | 775 ft | 146 kts | 307° |
| 2026-04-22 11:44 | 37.68287 | -122.18688 | 578 ft | 150 kts | 309° |
| 2026-04-22 11:44 | 37.68978 | -122.19690 | 387 ft | 152 kts | 309° |
| 2026-04-22 11:44 | 37.69659 | -122.20709 | 188 ft | 148 kts | 309° |
| 2026-04-22 11:45 | 37.70307 | -122.21670 | 26 ft | 140 kts | 308° |
| 2026-04-22 11:45 | 37.70883 | -122.22537 | 2 ft | 113 kts | 311° |
| 2026-04-22 11:45 | 37.71296 | -122.23150 | 6 ft | 70 kts | 311° |
| 2026-04-22 11:45 | 37.71560 | -122.23549 | 0 ft | 56 kts | 309° |
| 2026-04-22 11:46 | 37.71778 | -122.23766 | 3 ft | 30 kts | 19° |
| 2026-04-22 11:46 | 37.71819 | -122.23599 | 4 ft | 21 kts | 123° |
| 2026-04-22 11:46 | 37.71738 | -122.23445 | 4 ft | 21 kts | 122° |
| 2026-04-22 11:46 | 37.71650 | -122.23303 | 4 ft | 20 kts | 130° |
| 2026-04-22 11:47 | 37.71560 | -122.23170 | 6 ft | 20 kts | 131° |
| 2026-04-22 11:47 | 37.71473 | -122.23038 | 8 ft | 19 kts | 130° |
| 2026-04-22 11:47 | 37.71390 | -122.22907 | 10 ft | 19 kts | 130° |
| 2026-04-22 11:47 | 37.71293 | -122.22765 | 10 ft | 22 kts | 131° |
| 2026-04-22 11:48 | 37.71198 | -122.22618 | 9 ft | 21 kts | 130° |
| 2026-04-22 11:48 | 37.71105 | -122.22480 | 7 ft | 21 kts | 130° |
| 2026-04-22 11:48 | 37.71010 | -122.22339 | 6 ft | 22 kts | 131° |
| 2026-04-22 11:48 | 37.70910 | -122.22193 | 8 ft | 22 kts | 129° |
| 2026-04-22 11:49 | 37.70815 | -122.22047 | 9 ft | 21 kts | 130° |
| 2026-04-22 11:49 | 37.70721 | -122.21908 | 12 ft | 21 kts | 131° |
| 2026-04-22 11:49 | 37.70715 | -122.21760 | 12 ft | 20 kts | 42° |
| 2026-04-22 11:49 | 37.70822 | -122.21652 | 13 ft | 20 kts | 38° |
| 2026-04-22 11:50 | 37.70932 | -122.21540 | 13 ft | 20 kts | 36° |
| 2026-04-22 11:50 | 37.71044 | -122.21437 | 15 ft | 19 kts | 36° |
| 2026-04-22 11:50 | 37.71121 | -122.21387 | 14 ft | 6 kts | 359° |
| 2026-04-22 11:50 | 37.71168 | -122.21390 | 14 ft | 7 kts | 14° |
| 2026-04-22 11:51 | 37.71178 | -122.21381 | 14 ft | 0 kts | 36° |